Time;durP1;ratioP1;P1;durP2;ratioP2;P2;SDS_P1;SDS_P2;PMS_P1;PMS_P2;Temp;Humidity;BMP_temperature;BMP_pressure;BME280_temperature;BME280_humidity;BME280_pressure;Samples;Min_cycle;Max_cycle;Signal;HPM_P1;HPM_P2
2022/05/16 00:05:00;;;;;;;1.00;0.63;;;;;;;;;;20859159;28;20616;-70
2022/05/16 00:15:03;;;;;;;1.15;0.70;;;22.90;94.70;;;;;;20837860;28;20268;-70
2022/05/16 00:25:07;;;;;;;1.85;0.82;;;22.90;98.20;;;;;;20881683;28;20577;-71
2022/05/16 00:35:10;;;;;;;2.08;0.60;;;22.70;99.30;;;;;;20869911;28;20273;-70
2022/05/16 00:45:15;;;;;;;1.08;0.73;;;22.50;99.50;;;;;;20869040;28;20591;-71
2022/05/16 00:55:20;;;;;;;1.67;0.80;;;;;;;;;;20868047;28;20232;-71
2022/05/16 01:05:22;;;;;;;1.40;0.80;;;;;;;;;;20883131;28;20224;-70
2022/05/16 01:15:30;;;;;;;1.98;0.90;;;;;;;;;;20866005;28;20198;-71
2022/05/16 01:25:32;;;;;;;1.35;0.73;;;;;;;;;;20881709;28;20279;-71
2022/05/16 01:35:34;;;;;;;1.92;0.90;;;;;;;;;;20863750;28;20565;-70
2022/05/16 01:45:38;;;;;;;1.33;0.65;;;22.20;98.80;;;;;;20880028;28;20222;-70
2022/05/16 01:55:41;;;;;;;1.45;0.65;;;;;;;;;;20925690;22;20217;-84
2022/05/16 02:05:43;;;;;;;1.83;0.80;;;;;;;;;;20948104;28;20293;-85
2022/05/16 02:15:46;;;;;;;0.75;0.60;;;;;;;;;;20970968;28;20211;-84
2022/05/16 02:25:48;;;;;;;1.13;0.68;;;;;;;;;;20995526;28;20233;-83
2022/05/16 02:35:50;;;;;;;2.55;0.70;;;;;;;;;;20946581;28;20206;-84
2022/05/16 02:45:51;;;;;;;1.02;0.70;;;;;;;;;;20945366;28;20588;-84
2022/05/16 02:55:53;;;;;;;1.52;0.80;;;;;;;;;;20961616;28;20235;-83
2022/05/16 03:05:55;;;;;;;1.00;0.73;;;;;;;;;;21019832;28;20287;-84
2022/05/16 03:15:57;;;;;;;1.37;0.60;;;;;;;;;;20960117;28;20211;-84
2022/05/16 03:25:59;;;;;;;2.08;0.70;;;;;;;;;;20975107;28;20233;-83
2022/05/16 03:36:00;;;;;;;4.70;2.50;;;;;;;;;;20941247;28;20294;-88
2022/05/16 03:46:02;;;;;;;3.53;1.57;;;;;;;;;;20943296;28;20231;-89
2022/05/16 03:56:04;;;;;;;1.80;1.07;;;;;;;;;;20969968;28;20220;-89
2022/05/16 04:06:06;;;;;;;1.03;0.60;;;;;;;;;;20962228;28;20252;-89
2022/05/16 04:16:08;;;;;;;1.20;0.70;;;;;;;;;;20959006;28;20739;-87
2022/05/16 04:26:10;;;;;;;1.30;0.57;;;;;;;;;;20957571;28;20236;-88
2022/05/16 04:36:12;;;;;;;1.60;0.70;;;;;;;;;;20957543;28;20239;-88
2022/05/16 04:46:14;;;;;;;1.67;0.90;;;;;;;;;;20955563;28;20218;-89
2022/05/16 04:56:15;;;;;;;3.03;0.80;;;;;;;;;;20955519;28;20218;-89
2022/05/16 05:17:55;;;;;;;3.40;0.70;;;;;;;;;;20773590;22;20280;-71
2022/05/16 05:28:00;;;;;;;1.63;0.80;;;;;;;;;;20944473;28;20286;-71
2022/05/16 05:38:02;;;;;;;4.60;1.13;;;;;;;;;;20962315;28;20222;-71
2022/05/16 05:48:04;;;;;;;1.67;0.90;;;21.30;99.90;;;;;;20961776;28;20220;-71
2022/05/16 05:58:06;;;;;;;1.40;0.77;;;;;;;;;;20961704;28;20212;-71
2022/05/16 06:08:08;;;;;;;1.33;0.90;;;;;;;;;;20866628;28;20274;-70
2022/05/16 06:18:19;;;;;;;3.30;1.03;;;;;;;;;;20924984;28;20289;-71
2022/05/16 06:28:25;;;;;;;2.43;1.00;;;;;;;;;;20954742;28;20208;-70
2022/05/16 06:38:30;;;;;;;1.83;1.00;;;21.20;99.90;;;;;;20940984;28;20228;-71
2022/05/16 06:48:37;;;;;;;2.20;0.83;;;;;;;;;;20957382;28;20210;-71
2022/05/16 06:58:51;;;;;;;2.10;0.93;;;;;;;;;;20943209;28;20230;-71
2022/05/16 07:08:53;;;;;;;0.97;0.70;;;;;;;;;;20951476;28;20223;-72
2022/05/16 07:18:55;;;;;;;1.50;0.90;;;;;;;;;;20937382;28;20232;-71
2022/05/16 07:28:57;;;;;;;2.77;0.87;;;;;;;;;;20968691;28;20244;-71
2022/05/16 07:38:59;;;;;;;2.17;0.80;;;;;;;;;;20920132;28;20222;-73
2022/05/16 07:49:01;;;;;;;2.65;1.00;;;;;;;;;;20920262;28;20207;-72
2022/05/16 07:59:03;;;;;;;1.25;0.85;;;;;;;;;;20889867;22;20270;-70
2022/05/16 08:19:27;;;;;;;2.25;1.10;;;;;;;;;;20899639;28;20279;-71
2022/05/16 08:29:28;;;;;;;1.98;0.88;;;;;;;;;;20883368;28;20220;-71
2022/05/16 08:49:56;;;;;;;1.45;0.90;;;25.20;98.50;;;;;;20918669;28;20207;-71
2022/05/16 09:00:07;;;;;;;2.50;1.02;;;;;;;;;;20911192;28;20342;-71
2022/05/16 09:10:11;;;;;;;2.05;1.00;;;;;;;;;;20834354;28;20203;-70
2022/05/16 09:20:38;;;;;;;1.80;0.88;;;26.10;99.50;;;;;;20831967;28;20285;-71
2022/05/16 09:30:43;;;;;;;2.97;1.10;;;26.40;96.30;;;;;;20830176;28;20216;-70
2022/05/16 09:41:03;;;;;;;1.90;1.02;;;;;;;;;;20862983;28;20228;-73
2022/05/16 09:51:07;;;;;;;1.13;0.88;;;27.50;97.20;;;;;;20898202;28;20204;-71
2022/05/16 10:01:11;;;;;;;5.43;1.35;;;;;;;;;;20860162;28;20594;-71
2022/05/16 10:11:18;;;;;;;6.20;1.50;;;;;;;;;;20877587;28;20199;-71
2022/05/16 10:21:30;;;;;;;6.25;1.63;;;26.60;97.10;;;;;;20889527;28;20278;-71
2022/05/16 10:42:14;;;;;;;1.98;0.70;;;27.30;97.20;;;;;;20907260;28;20228;-75
2022/05/16 10:52:36;;;;;;;1.13;0.60;;;26.40;97.90;;;;;;20907137;28;20282;-74
2022/05/16 11:02:53;;;;;;;2.72;0.75;;;;;;;;;;20905717;28;20699;-73
2022/05/16 11:13:16;;;;;;;2.08;0.68;;;25.50;89.10;;;;;;20905732;28;20241;-75
2022/05/16 11:23:45;;;;;;;1.42;0.70;;;25.20;99.90;;;;;;20890223;28;20247;-75
2022/05/16 11:33:54;;;;;;;2.03;0.90;;;24.80;99.90;;;;;;20899164;28;20208;-74
2022/05/16 11:44:15;;;;;;;4.35;0.80;;;;;;;;;;20904719;28;20686;-75
2022/05/16 11:54:22;;;;;;;1.33;0.50;;;24.90;99.90;;;;;;20904117;28;20211;-75
2022/05/16 12:04:24;;;;;;;0.55;0.50;;;;;;;;;;20864051;28;20261;-71
2022/05/16 12:14:32;;;;;;;1.45;0.32;;;;;;;;;;20900787;28;20262;-71
2022/05/16 12:24:52;;;;;;;1.10;0.32;;;25.20;87.60;;;;;;20918955;28;20518;-72
2022/05/16 12:35:08;;;;;;;1.10;0.30;;;25.30;99.90;;;;;;20917957;28;20235;-71
2022/05/16 12:45:31;;;;;;;1.20;0.35;;;;;;;;;;20917862;28;20231;-72
2022/05/16 12:55:52;;;;;;;1.23;0.40;;;25.00;99.90;;;;;;20917000;28;20592;-71
2022/05/16 13:06:02;;;;;;;0.85;0.40;;;;;;;;;;20881345;28;20271;-70
2022/05/16 13:16:21;;;;;;;0.28;0.28;;;25.00;92.10;;;;;;20894865;28;20212;-69
2022/05/16 13:36:46;;;;;;;3.88;0.77;;;;;;;;;;20862615;28;20255;-70
2022/05/16 13:46:51;;;;;;;1.73;0.70;;;25.80;99.30;;;;;;20852592;28;20220;-74
2022/05/16 13:56:58;;;;;;;1.08;0.40;;;;;;;;;;20911875;22;20711;-65
2022/05/16 14:07:23;;;;;;;0.95;0.47;;;;;;;;;;20879257;28;20224;-66
2022/05/16 14:17:43;;;;;;;1.42;0.30;;;25.60;99.90;;;;;;20866672;28;20220;-67
2022/05/16 14:27:58;;;;;;;0.93;0.50;;;25.40;99.90;;;;;;20894212;28;20209;-66
2022/05/16 14:38:13;;;;;;;0.30;0.25;;;;;;;;;;20876089;28;20219;-67
2022/05/16 14:48:15;;;;;;;0.45;0.30;;;;;;;;;;20888792;28;20221;-67
2022/05/16 14:58:17;;;;;;;0.88;0.40;;;;;;;;;;20918658;28;20576;-66
2022/05/16 15:08:21;;;;;;;0.80;0.50;;;;;;;;;;20895035;28;20212;-66
2022/05/16 15:18:23;;;;;;;1.42;0.77;;;;;;;;;;20902522;28;20745;-66
2022/05/16 15:28:25;;;;;;;1.02;0.73;;;24.60;99.90;;;;;;20903596;28;20216;-66
2022/05/16 15:38:28;;;;;;;0.88;0.45;;;;;;;;;;20892974;28;20255;-66
2022/05/16 15:48:30;;;;;;;1.38;0.40;;;;;;;;;;20897532;28;20244;-66
2022/05/16 15:58:32;;;;;;;1.20;0.43;;;;;;;;;;20878655;28;20273;-67
2022/05/16 16:08:39;;;;;;;1.90;0.68;;;;;;;;;;20900829;28;20227;-67
2022/05/16 16:18:42;;;;;;;3.53;1.05;;;;;;;;;;20882769;28;20219;-67
2022/05/16 16:28:44;;;;;;;0.45;0.40;;;;;;;;;;20865260;28;20254;-67
2022/05/16 16:38:46;;;;;;;0.93;0.50;;;;;;;;;;20862599;28;20229;-67
2022/05/16 16:48:49;;;;;;;1.60;0.60;;;;;;;;;;20860530;28;20264;-67
2022/05/16 16:58:51;;;;;;;1.95;0.57;;;;;;;;;;20850951;28;20588;-66
2022/05/16 17:08:53;;;;;;;0.73;0.50;;;;;;;;;;20879876;28;20213;-66
2022/05/16 17:18:55;;;;;;;1.48;0.80;;;;;;;;;;20863694;28;20215;-66
2022/05/16 17:28:57;;;;;;;2.47;0.80;;;;;;;;;;20873766;28;20215;-66
2022/05/16 17:39:00;;;;;;;1.15;0.75;;;;;;;;;;20884968;28;20585;-66
2022/05/16 17:49:02;;;;;;;1.75;0.60;;;;;;;;;;20882967;28;20692;-66
2022/05/16 17:59:04;;;;;;;0.98;0.68;;;;;;;;;;20876803;28;20217;-66
2022/05/16 18:09:08;;;;;;;3.55;1.10;;;24.10;99.90;;;;;;20921580;28;20694;-66
2022/05/16 18:19:11;;;;;;;1.13;0.93;;;;;;;;;;20900240;28;20266;-66
2022/05/16 18:29:13;;;;;;;1.52;0.63;;;;;;;;;;20904601;28;20212;-66
2022/05/16 18:39:17;;;;;;;3.28;1.00;;;;;;;;;;20900130;28;20286;-66
2022/05/16 18:59:40;;;;;;;1.40;0.88;;;;;;;;;;20822917;28;20270;-66
2022/05/16 19:09:43;;;;;;;2.03;0.90;;;;;;;;;;20904886;28;20258;-66
2022/05/16 19:19:49;;;;;;;1.90;0.98;;;;;;;;;;20862397;28;20687;-66
2022/05/16 19:40:11;;;;;;;3.80;1.20;;;;;;;;;;20790104;28;20698;-66
2022/05/16 19:50:13;;;;;;;1.63;0.95;;;;;;;;;;20782033;28;20218;-66
2022/05/16 20:00:16;;;;;;;2.15;1.15;;;;;;;;;;20793528;22;20597;-66
2022/05/16 20:10:24;;;;;;;2.08;0.80;;;;;;;;;;20782933;28;20215;-67
2022/05/16 20:20:26;;;;;;;1.85;1.23;;;;;;;;;;20807554;28;20218;-66
2022/05/16 20:30:29;;;;;;;1.90;1.10;;;;;;;;;;20883906;28;20215;-66
2022/05/16 20:40:33;;;;;;;1.52;0.90;;;;;;;;;;20863489;28;20216;-67
2022/05/16 20:50:37;;;;;;;1.98;0.93;;;22.10;99.90;;;;;;20845857;28;20264;-67
2022/05/16 21:00:41;;;;;;;1.70;1.00;;;22.10;99.90;;;;;;20916670;28;20224;-67
2022/05/16 21:10:44;;;;;;;2.67;1.17;;;;;;;;;;20840413;28;20287;-67
2022/05/16 21:20:47;;;;;;;2.78;0.95;;;;;;;;;;20899051;28;20274;-67
2022/05/16 21:30:49;;;;;;;1.17;0.85;;;;;;;;;;20849772;28;20284;-67
2022/05/16 21:40:51;;;;;;;1.55;1.08;;;;;;;;;;20844226;28;20228;-66
2022/05/16 21:50:54;;;;;;;1.23;0.88;;;;;;;;;;20863048;28;20206;-66
2022/05/16 22:00:56;;;;;;;1.67;1.13;;;;;;;;;;20879892;28;20648;-67
2022/05/16 22:10:59;;;;;;;2.47;1.05;;;21.00;99.90;;;;;;20894413;28;20222;-67
2022/05/16 22:21:01;;;;;;;2.47;1.10;;;;;;;;;;20848585;28;20216;-67
2022/05/16 22:31:03;;;;;;;2.20;1.00;;;;;;;;;;20869311;28;20221;-67
2022/05/16 22:41:05;;;;;;;1.50;0.90;;;;;;;;;;20859473;28;20217;-67
2022/05/16 22:51:07;;;;;;;1.27;0.73;;;;;;;;;;20907848;28;20221;-67
2022/05/16 23:01:09;;;;;;;1.87;1.10;;;;;;;;;;20851324;28;20226;-67
2022/05/16 23:11:13;;;;;;;2.40;1.10;;;;;;;;;;20891033;28;20685;-67
2022/05/16 23:21:15;;;;;;;1.57;1.03;;;;;;;;;;20873508;28;20222;-67
2022/05/16 23:41:41;;;;;;;1.20;0.93;;;;;;;;;;17290179;26;20347;-85
2022/05/16 23:51:43;;;;;;;1.60;0.83;;;;;;;;;;20872697;28;20252;-85
